createdAt,value
2017-11-27T00:00:01.921Z,96.83
2017-11-27T00:00:28.049Z,96.83
2017-11-27T00:00:54.160Z,96.92
2017-11-27T00:01:20.288Z,96.26
2017-11-27T00:01:46.411Z,97.12
2017-11-27T00:02:12.523Z,97.02
2017-11-27T00:02:38.641Z,97.12
2017-11-27T00:03:04.768Z,97.02
2017-11-27T00:03:30.887Z,96.92
2017-11-27T00:03:57.003Z,97.02
2017-11-27T00:04:23.140Z,97.02
2017-11-27T00:04:49.263Z,97.12
2017-11-27T00:05:15.378Z,96.92
2017-11-27T00:05:41.502Z,96.83
2017-11-27T00:06:07.617Z,97.02
2017-11-27T00:06:33.744Z,97.02
2017-11-27T00:06:59.888Z,96.64
2017-11-27T00:07:26.003Z,96.73
2017-11-27T00:07:52.167Z,96.64
2017-11-27T00:08:18.247Z,96.83
2017-11-27T00:08:44.363Z,97.02
2017-11-27T00:09:10.510Z,97.12
2017-11-27T00:09:36.639Z,96.17
2017-11-27T00:10:02.765Z,96.17
2017-11-27T00:10:28.885Z,96.55
2017-11-27T00:10:54.998Z,96.36
2017-11-27T00:11:21.122Z,96.36
2017-11-27T00:11:47.257Z,96.17
2017-11-27T00:12:13.377Z,95.79
2017-11-27T00:12:39.496Z,95.79
2017-11-27T00:13:05.621Z,95.79
2017-11-27T00:13:31.760Z,96.36
2017-11-27T00:13:57.875Z,96.45
2017-11-27T00:14:23.998Z,97.12
2017-11-27T00:14:50.124Z,96.92
2017-11-27T00:15:16.243Z,96.92
2017-11-27T00:15:42.368Z,96.83
2017-11-27T00:16:08.486Z,96.64
2017-11-27T00:16:34.605Z,96.83
2017-11-27T00:17:00.721Z,97.02
2017-11-27T00:17:26.876Z,96.83
2017-11-27T00:17:53.038Z,97.02
2017-11-27T00:18:19.149Z,97.02
2017-11-27T00:18:45.279Z,96.73
2017-11-27T00:19:11.389Z,96.92
2017-11-27T00:19:37.505Z,96.73
2017-11-27T00:20:03.624Z,97.12
2017-11-27T00:20:29.761Z,96.83
2017-11-27T00:20:55.887Z,96.83
2017-11-27T00:21:22.005Z,96.73
2017-11-27T00:21:48.129Z,96.92
2017-11-27T00:22:14.240Z,97.02
2017-11-27T00:22:40.360Z,96.92
2017-11-27T00:23:06.480Z,97.12
2017-11-27T00:23:32.602Z,96.83
2017-11-27T00:23:58.726Z,96.92
2017-11-27T00:24:24.865Z,97.02
2017-11-27T00:24:50.992Z,96.92
2017-11-27T00:25:17.104Z,96.92
2017-11-27T00:25:43.220Z,97.02
2017-11-27T00:26:09.336Z,96.26
2017-11-27T00:26:35.464Z,96.55
2017-11-27T00:27:01.571Z,96.45
2017-11-27T00:27:27.699Z,96.45
2017-11-27T00:27:53.816Z,96.36
2017-11-27T00:28:19.939Z,96.55
2017-11-27T00:28:46.064Z,96.26
2017-11-27T00:29:12.176Z,96.55
2017-11-27T00:29:38.324Z,96.45
2017-11-27T00:30:04.449Z,96.08
2017-11-27T00:30:30.558Z,96.36
2017-11-27T00:30:56.680Z,96.36
2017-11-27T00:31:22.823Z,96.36
2017-11-27T00:31:48.939Z,96.36
2017-11-27T00:32:15.062Z,96.36
2017-11-27T00:32:41.176Z,96.08
2017-11-27T00:33:07.300Z,96.26
2017-11-27T00:33:33.419Z,96.83
2017-11-27T00:33:59.536Z,96.92
2017-11-27T00:34:25.682Z,96.88
2017-11-27T00:34:51.806Z,96.83
2017-11-27T00:35:17.929Z,96.83
2017-11-27T00:35:44.058Z,96.92
2017-11-27T00:36:10.181Z,97.02
2017-11-27T00:36:36.320Z,96.64
2017-11-27T00:37:02.443Z,96.83
2017-11-27T00:37:28.564Z,96.64
2017-11-27T00:37:54.681Z,96.83
2017-11-27T00:38:20.805Z,97.02
2017-11-27T00:38:46.921Z,96.92
2017-11-27T00:39:13.040Z,96.73
2017-11-27T00:39:39.174Z,96.92
2017-11-27T00:40:05.279Z,96.92
2017-11-27T00:40:31.403Z,96.92
2017-11-27T00:40:57.541Z,96.92
2017-11-27T00:41:23.663Z,97.02
2017-11-27T00:41:49.785Z,96.92
2017-11-27T00:42:15.910Z,97.02
2017-11-27T00:42:42.026Z,97.12
2017-11-27T00:43:08.174Z,97.12
2017-11-27T00:43:34.291Z,97.12
2017-11-27T00:44:00.441Z,96.83
2017-11-27T00:44:26.556Z,96.83
2017-11-27T00:44:52.675Z,96.92
2017-11-27T00:45:18.801Z,96.73
2017-11-27T00:45:44.919Z,97.02
2017-11-27T00:46:11.025Z,96.92
2017-11-27T00:46:37.147Z,96.92
2017-11-27T00:47:03.267Z,97.12
2017-11-27T00:47:29.387Z,96.17
2017-11-27T00:47:55.508Z,96.64
2017-11-27T00:48:21.646Z,96.36
2017-11-27T00:48:47.763Z,96.36
2017-11-27T00:49:13.886Z,96.45
2017-11-27T00:49:40.022Z,96.55
2017-11-27T00:50:06.133Z,96.45
2017-11-27T00:50:32.257Z,96.17
2017-11-27T00:50:58.377Z,96.26
2017-11-27T00:51:24.518Z,96.17
2017-11-27T00:51:50.644Z,96.55
2017-11-27T00:52:16.763Z,96.36
2017-11-27T00:52:42.897Z,96.36
2017-11-27T00:53:09.019Z,96.26
2017-11-27T00:53:35.158Z,95.98
2017-11-27T00:54:01.272Z,95.79
2017-11-27T00:54:27.396Z,96.26
2017-11-27T00:54:53.511Z,96.17
2017-11-27T00:55:19.638Z,96.08
2017-11-27T00:55:45.777Z,96.26
2017-11-27T00:56:11.920Z,95.79
2017-11-27T00:56:38.042Z,95.69
2017-11-27T00:57:04.195Z,95.5
2017-11-27T00:57:30.280Z,96.17
2017-11-27T00:57:56.396Z,95.88
2017-11-27T00:58:22.524Z,96.36
2017-11-27T00:58:48.659Z,97.02
2017-11-27T00:59:14.810Z,96.92
2017-11-27T00:59:40.946Z,96.83
2017-11-27T01:00:07.059Z,96.92
2017-11-27T01:00:33.182Z,96.83
2017-11-27T01:00:59.321Z,96.08
2017-11-27T01:01:25.482Z,96.92
2017-11-27T01:01:51.598Z,97.12
2017-11-27T01:02:17.721Z,97.12
2017-11-27T01:02:43.856Z,96.55
2017-11-27T01:03:09.958Z,96.17
2017-11-27T01:03:36.076Z,96.64
2017-11-27T01:04:02.199Z,96.55
2017-11-27T01:04:28.325Z,96.26
2017-11-27T01:04:54.442Z,96.55
2017-11-27T01:05:20.572Z,96.55
2017-11-27T01:05:46.711Z,96.36
2017-11-27T01:06:12.832Z,95.79
2017-11-27T01:06:38.943Z,95.98
2017-11-27T01:07:05.082Z,96.55
2017-11-27T01:07:31.221Z,96.36
2017-11-27T01:07:57.338Z,96.36
2017-11-27T01:08:23.460Z,96.36
2017-11-27T01:08:49.578Z,96.36
2017-11-27T01:09:15.704Z,96.08
2017-11-27T01:09:41.820Z,96.08
2017-11-27T01:10:07.935Z,96.17
2017-11-27T01:10:34.059Z,96.26
2017-11-27T01:11:00.174Z,96.08
2017-11-27T01:11:26.300Z,96.17
2017-11-27T01:11:52.425Z,96.17
2017-11-27T01:12:18.542Z,96.45
2017-11-27T01:12:44.681Z,96.36
2017-11-27T01:13:10.805Z,96.26
2017-11-27T01:13:36.951Z,97.02
2017-11-27T01:14:03.081Z,97.12
2017-11-27T01:14:29.201Z,97.02
2017-11-27T01:14:55.314Z,96.92
2017-11-27T01:15:21.439Z,97.12
2017-11-27T01:15:47.575Z,96.92
2017-11-27T01:16:13.727Z,96.83
2017-11-27T01:16:39.857Z,96.64
2017-11-27T01:17:05.969Z,96.83
2017-11-27T01:17:32.107Z,96.83
2017-11-27T01:17:58.223Z,97.12
2017-11-27T01:18:24.340Z,96.17
2017-11-27T01:18:50.467Z,96.36
2017-11-27T01:19:16.589Z,95.98
2017-11-27T01:19:42.707Z,95.88
2017-11-27T01:20:08.845Z,96.26
2017-11-27T01:20:34.966Z,96.36
2017-11-27T01:21:01.086Z,96.26
2017-11-27T01:21:27.209Z,96.36
2017-11-27T01:21:53.323Z,96.36
2017-11-27T01:22:19.444Z,96.17
2017-11-27T01:22:45.564Z,95.88
2017-11-27T01:23:11.689Z,95.79
2017-11-27T01:23:37.810Z,96.36
2017-11-27T01:24:03.935Z,96.17
2017-11-27T01:24:30.051Z,95.98
2017-11-27T01:24:56.175Z,96.36
2017-11-27T01:25:22.292Z,96.17
2017-11-27T01:25:48.417Z,96.92
2017-11-27T01:26:14.540Z,96.83
2017-11-27T01:26:40.656Z,96.83
2017-11-27T01:27:06.781Z,97.02
2017-11-27T01:27:32.897Z,97.02
2017-11-27T01:27:59.015Z,97.12
2017-11-27T01:28:25.137Z,97.02
2017-11-27T01:28:51.261Z,97.02
2017-11-27T01:29:17.380Z,96.83
2017-11-27T01:29:43.502Z,96.83
2017-11-27T01:30:09.618Z,96.83
2017-11-27T01:30:35.736Z,96.64
2017-11-27T01:31:01.866Z,96.92
2017-11-27T01:31:27.977Z,96.92
2017-11-27T01:31:54.103Z,96.36
2017-11-27T01:32:20.226Z,96.92
2017-11-27T01:32:46.346Z,96.26
2017-11-27T01:33:12.460Z,96.36
2017-11-27T01:33:38.586Z,96.45
2017-11-27T01:34:04.750Z,96.26
2017-11-27T01:34:30.825Z,96.08
2017-11-27T01:34:56.953Z,96.45
2017-11-27T01:35:23.069Z,96.36
2017-11-27T01:35:49.193Z,96.08
2017-11-27T01:36:15.312Z,95.88
2017-11-27T01:36:41.431Z,95.79
2017-11-27T01:37:07.573Z,96.26
2017-11-27T01:37:33.693Z,95.98
2017-11-27T01:37:59.810Z,96.36
2017-11-27T01:38:25.934Z,96.55
2017-11-27T01:38:52.053Z,96.26
2017-11-27T01:39:18.173Z,96.26
2017-11-27T01:39:44.299Z,96.36
2017-11-27T01:40:10.422Z,96.26
2017-11-27T01:40:36.542Z,96.17
2017-11-27T01:41:02.683Z,96.55
2017-11-27T01:41:28.802Z,95.88
2017-11-27T01:41:54.917Z,95.79
2017-11-27T01:42:21.042Z,95.98
2017-11-27T01:42:47.160Z,96.17
2017-11-27T01:43:13.284Z,95.79
2017-11-27T01:43:39.407Z,95.88
2017-11-27T01:44:05.527Z,96.26
2017-11-27T01:44:31.645Z,96.17
2017-11-27T01:44:57.760Z,96.17
2017-11-27T01:45:23.886Z,96.26
2017-11-27T01:45:50.009Z,96.17
2017-11-27T01:46:16.129Z,96.36
2017-11-27T01:46:42.255Z,96.17
2017-11-27T01:47:08.364Z,96.17
2017-11-27T01:47:34.509Z,95.5
2017-11-27T01:48:00.669Z,96.26
2017-11-27T01:48:26.792Z,95.88
2017-11-27T01:48:52.914Z,96.17
2017-11-27T01:49:19.029Z,95.88
2017-11-27T01:49:45.156Z,95.79
2017-11-27T01:50:11.275Z,96.26
2017-11-27T01:50:37.394Z,96.08
2017-11-27T01:51:03.552Z,96.45
2017-11-27T01:51:29.640Z,96.17
2017-11-27T01:51:55.759Z,96.26
2017-11-27T01:52:21.875Z,96.17
2017-11-27T01:52:48.002Z,96.45
2017-11-27T01:53:14.119Z,96.36
2017-11-27T01:53:40.245Z,95.88
2017-11-27T01:54:06.369Z,95.79
2017-11-27T01:54:32.502Z,96.08
2017-11-27T01:54:58.629Z,95.98
2017-11-27T01:55:24.764Z,96.36
2017-11-27T01:55:50.892Z,95.79
2017-11-27T01:56:17.009Z,95.41
2017-11-27T01:56:43.135Z,95.79
2017-11-27T01:57:09.255Z,95.69
2017-11-27T01:57:35.371Z,95.6
2017-11-27T01:58:01.498Z,95.5
2017-11-27T01:58:27.617Z,95.69
2017-11-27T01:58:53.736Z,95.79
2017-11-27T01:59:19.862Z,96.17
2017-11-27T01:59:45.984Z,95.5
2017-11-27T02:00:12.105Z,95.69
2017-11-27T02:00:38.229Z,95.5
2017-11-27T02:01:04.338Z,95.88
2017-11-27T02:01:30.468Z,95.88
2017-11-27T02:01:56.612Z,96.08
2017-11-27T02:02:22.728Z,96.08
2017-11-27T02:02:48.852Z,96.17
2017-11-27T02:03:14.991Z,96.36
2017-11-27T02:03:41.114Z,95.88
2017-11-27T02:04:07.237Z,96.17
2017-11-27T02:04:33.352Z,96.17
2017-11-27T02:04:59.480Z,96.17
2017-11-27T02:05:25.602Z,96.08
2017-11-27T02:05:51.730Z,95.79
2017-11-27T02:06:17.845Z,95.98
2017-11-27T02:06:43.965Z,95.88
2017-11-27T02:07:10.080Z,95.79
2017-11-27T02:07:36.224Z,96.17
2017-11-27T02:08:02.347Z,95.98
2017-11-27T02:08:28.464Z,96.36
2017-11-27T02:08:54.584Z,96.08
2017-11-27T02:09:20.705Z,96.08
2017-11-27T02:09:46.836Z,95.79
2017-11-27T02:10:12.952Z,96.45
2017-11-27T02:10:39.076Z,96.17
2017-11-27T02:11:05.194Z,95.79
2017-11-27T02:11:31.310Z,95.98
2017-11-27T02:11:57.435Z,96.17
2017-11-27T02:12:23.553Z,96.45
2017-11-27T02:12:49.686Z,96.36
2017-11-27T02:13:15.831Z,96.08
2017-11-27T02:13:41.940Z,96.26
2017-11-27T02:14:08.084Z,95.98
2017-11-27T02:14:34.223Z,95.88
2017-11-27T02:15:00.356Z,95.88
2017-11-27T02:15:26.468Z,95.69
2017-11-27T02:15:52.589Z,96.08
2017-11-27T02:16:18.706Z,96.17
2017-11-27T02:16:44.823Z,96.17
2017-11-27T02:17:10.952Z,96.17
2017-11-27T02:17:37.067Z,96.08
2017-11-27T02:18:03.186Z,96.36
2017-11-27T02:18:29.309Z,96.17
2017-11-27T02:18:55.429Z,96.08
2017-11-27T02:19:21.554Z,95.88
2017-11-27T02:19:47.671Z,96.08
2017-11-27T02:20:13.791Z,96.17
2017-11-27T02:20:39.916Z,96.08
2017-11-27T02:21:06.045Z,96.55
2017-11-27T02:21:32.154Z,96.45
2017-11-27T02:21:58.274Z,96.08
2017-11-27T02:22:24.395Z,96.36
2017-11-27T02:22:50.521Z,96.36
2017-11-27T02:23:16.638Z,96.08
2017-11-27T02:23:42.766Z,96.17
2017-11-27T02:24:08.889Z,96.45
2017-11-27T02:24:35.005Z,96.26
2017-11-27T02:25:01.124Z,96.92
2017-11-27T02:25:27.242Z,96.92
2017-11-27T02:25:53.360Z,97.12
2017-11-27T02:26:19.487Z,97.12
2017-11-27T02:26:45.606Z,96.36
2017-11-27T02:27:11.722Z,97.12
2017-11-27T02:27:37.850Z,96.92
2017-11-27T02:28:03.998Z,97.12
2017-11-27T02:28:30.111Z,96.83
2017-11-27T02:28:56.235Z,96.78
2017-11-27T02:29:22.356Z,96.92
2017-11-27T02:29:48.480Z,97.02
2017-11-27T02:30:14.598Z,96.92
2017-11-27T02:30:40.718Z,97.02
2017-11-27T02:31:06.870Z,96.73
2017-11-27T02:31:32.989Z,97.12
2017-11-27T02:31:59.112Z,97.12
2017-11-27T02:32:25.254Z,97.02
2017-11-27T02:32:51.394Z,97.12
2017-11-27T02:33:17.513Z,96.92
2017-11-27T02:33:43.630Z,96.92
2017-11-27T02:34:09.756Z,96.92
2017-11-27T02:34:35.873Z,97.12
2017-11-27T02:35:01.996Z,97.02
2017-11-27T02:35:28.113Z,96.73
2017-11-27T02:35:54.229Z,96.92
2017-11-27T02:36:20.357Z,96.92
2017-11-27T02:36:46.476Z,96.92
2017-11-27T02:37:12.589Z,96.45
2017-11-27T02:37:38.743Z,96.36
2017-11-27T02:38:04.859Z,96.17
2017-11-27T02:38:30.976Z,96.08
2017-11-27T02:38:57.150Z,96.45
2017-11-27T02:39:23.268Z,96.92
2017-11-27T02:39:49.409Z,96.92
2017-11-27T02:40:15.533Z,96.08
2017-11-27T02:40:41.645Z,97.12
2017-11-27T02:41:07.771Z,96.92
2017-11-27T02:41:33.889Z,96.83
2017-11-27T02:42:00.007Z,97.02
2017-11-27T02:42:26.134Z,96.83
2017-11-27T02:42:52.245Z,96.92
2017-11-27T02:43:18.385Z,96.26
2017-11-27T02:43:44.505Z,96.45
2017-11-27T02:44:10.620Z,96.36
2017-11-27T02:44:36.740Z,96.26
2017-11-27T02:45:02.860Z,96.55
2017-11-27T02:45:28.974Z,96.55
2017-11-27T02:45:55.102Z,96.55
2017-11-27T02:46:21.216Z,96.55
2017-11-27T02:46:47.338Z,96.17
2017-11-27T02:47:13.455Z,97.12
2017-11-27T02:47:39.572Z,97.12
2017-11-27T02:48:05.699Z,97.02
2017-11-27T02:48:31.814Z,96.73
2017-11-27T02:48:57.940Z,96.83
2017-11-27T02:49:24.066Z,97.12
2017-11-27T02:49:50.202Z,96.92
2017-11-27T02:50:16.319Z,96.92
2017-11-27T02:50:42.441Z,96.92
2017-11-27T02:51:08.562Z,97.02
2017-11-27T02:51:34.692Z,96.83
2017-11-27T02:52:00.844Z,97.12
2017-11-27T02:52:26.980Z,96.17
2017-11-27T02:52:53.098Z,96.17
2017-11-27T02:53:19.224Z,96.36
2017-11-27T02:53:45.366Z,96.36
2017-11-27T02:54:11.495Z,96.17
2017-11-27T02:54:37.624Z,96.45
2017-11-27T02:55:03.749Z,96.92
2017-11-27T02:55:29.865Z,97.02
2017-11-27T02:55:55.982Z,97.02
2017-11-27T02:56:22.106Z,97.02
2017-11-27T02:56:48.224Z,96.92
2017-11-27T02:57:14.348Z,96.83
2017-11-27T02:57:40.468Z,96.92
2017-11-27T02:58:06.594Z,97.02
2017-11-27T02:58:32.733Z,96.92
2017-11-27T02:58:58.859Z,96.92
2017-11-27T02:59:25.004Z,96.92
2017-11-27T02:59:51.119Z,96.73
2017-11-27T03:00:17.245Z,96.55
2017-11-27T03:00:43.366Z,96.73
2017-11-27T03:01:09.480Z,96.92
2017-11-27T03:01:35.607Z,96.83
2017-11-27T03:02:01.722Z,96.83
2017-11-27T03:02:27.867Z,96.36
2017-11-27T03:02:53.996Z,96.26
2017-11-27T03:03:20.103Z,96.26
2017-11-27T03:03:46.221Z,96.45
2017-11-27T03:04:12.349Z,96.45
2017-11-27T03:04:38.471Z,95.98
2017-11-27T03:05:04.588Z,96.92
2017-11-27T03:05:30.711Z,96.45
2017-11-27T03:05:56.827Z,97.12
2017-11-27T03:06:22.972Z,97.12
2017-11-27T03:06:49.090Z,96.73
2017-11-27T03:07:15.211Z,96.83
2017-11-27T03:07:41.326Z,97.02
2017-11-27T03:08:07.452Z,96.73
2017-11-27T03:08:33.576Z,97.21
2017-11-27T03:08:59.699Z,97.5
2017-11-27T03:09:25.812Z,96.92
2017-11-27T03:09:51.930Z,97.12
2017-11-27T03:10:18.078Z,97.31
2017-11-27T03:10:44.193Z,97.31
2017-11-27T03:11:10.319Z,97.02
2017-11-27T03:11:36.441Z,97.02
2017-11-27T03:12:02.565Z,97.12
2017-11-27T03:12:28.682Z,96.83
2017-11-27T03:12:54.799Z,96.83
2017-11-27T03:13:20.923Z,97.21
2017-11-27T03:13:47.039Z,97.21
2017-11-27T03:14:13.181Z,96.92
2017-11-27T03:14:39.303Z,97.31
2017-11-27T03:15:05.422Z,97.4
2017-11-27T03:15:31.548Z,97.21
2017-11-27T03:15:57.664Z,96.92
2017-11-27T03:16:23.789Z,96.73
2017-11-27T03:16:49.899Z,97.02
2017-11-27T03:17:16.027Z,97.02
2017-11-27T03:17:42.145Z,96.92
2017-11-27T03:18:08.265Z,97.02
2017-11-27T03:18:34.385Z,96.55
2017-11-27T03:19:00.500Z,97.02
2017-11-27T03:19:26.627Z,96.92
2017-11-27T03:19:52.745Z,96.92
2017-11-27T03:20:18.866Z,96.55
2017-11-27T03:20:44.984Z,96.92
2017-11-27T03:21:11.107Z,97.02
2017-11-27T03:21:37.231Z,97.12
2017-11-27T03:22:03.352Z,97.02
2017-11-27T03:22:29.473Z,96.92
2017-11-27T03:22:55.602Z,96.83
2017-11-27T03:23:21.718Z,97.12
2017-11-27T03:23:47.835Z,96.92
2017-11-27T03:24:13.954Z,96.73
2017-11-27T03:24:40.070Z,97.31
2017-11-27T03:25:06.189Z,97.21
2017-11-27T03:25:32.318Z,96.83
2017-11-27T03:25:58.456Z,96.92
2017-11-27T03:26:24.581Z,96.92
2017-11-27T03:26:50.701Z,97.21
2017-11-27T03:27:16.824Z,97.21
2017-11-27T03:27:42.939Z,97.21
2017-11-27T03:28:09.079Z,97.31
2017-11-27T03:28:35.201Z,97.12
2017-11-27T03:29:01.319Z,97.31
2017-11-27T03:29:27.442Z,97.21
2017-11-27T03:29:53.583Z,96.83
2017-11-27T03:30:19.762Z,96.92
2017-11-27T03:30:45.852Z,96.92
2017-11-27T03:31:11.969Z,97.69
2017-11-27T03:31:38.093Z,97.21
2017-11-27T03:32:04.209Z,96.92
2017-11-27T03:32:30.362Z,97.31
2017-11-27T03:32:56.447Z,97.31
2017-11-27T03:33:22.575Z,97.21
2017-11-27T03:33:48.697Z,97.31
2017-11-27T03:34:14.810Z,97.31
2017-11-27T03:34:40.941Z,97.21
2017-11-27T03:35:07.053Z,97.31
2017-11-27T03:35:33.195Z,97.5
2017-11-27T03:35:59.339Z,97.78
2017-11-27T03:36:25.478Z,97.78
2017-11-27T03:36:51.602Z,97.69
2017-11-27T03:37:17.716Z,97.69
2017-11-27T03:37:43.835Z,97.21
2017-11-27T03:38:09.960Z,97.21
2017-11-27T03:38:36.084Z,97.31
2017-11-27T03:39:02.212Z,96.92
2017-11-27T03:39:28.325Z,97.12
2017-11-27T03:39:54.443Z,97.12
2017-11-27T03:40:20.563Z,96.64
2017-11-27T03:40:46.686Z,96.92
2017-11-27T03:41:12.806Z,97.21
2017-11-27T03:41:38.944Z,96.73
2017-11-27T03:42:05.065Z,96.92
2017-11-27T03:42:31.186Z,96.83
2017-11-27T03:42:57.312Z,96.64
2017-11-27T03:43:23.424Z,96.83
2017-11-27T03:43:49.542Z,97.02
2017-11-27T03:44:15.670Z,97.02
2017-11-27T03:44:41.786Z,97.02
2017-11-27T03:45:07.910Z,96.92
2017-11-27T03:45:34.042Z,97.02
2017-11-27T03:46:00.181Z,96.83
2017-11-27T03:46:26.300Z,97.21
2017-11-27T03:46:52.424Z,97.21
2017-11-27T03:47:18.540Z,96.83
2017-11-27T03:47:44.660Z,97.02
2017-11-27T03:48:10.784Z,96.73
2017-11-27T03:48:36.918Z,96.92
2017-11-27T03:49:03.059Z,97.21
2017-11-27T03:49:29.187Z,97.31
2017-11-27T03:49:55.307Z,97.21
2017-11-27T03:50:21.428Z,97.12
2017-11-27T03:50:47.568Z,97.12
2017-11-27T03:51:13.703Z,97.02
2017-11-27T03:51:39.824Z,96.83
2017-11-27T03:52:05.948Z,96.55
2017-11-27T03:52:32.090Z,96.83
2017-11-27T03:52:58.205Z,96.83
2017-11-27T03:53:24.325Z,97.17
2017-11-27T03:53:50.472Z,96.26
2017-11-27T03:54:16.614Z,96.73
2017-11-27T03:54:42.743Z,97.12
2017-11-27T03:55:08.853Z,96.92
2017-11-27T03:55:34.980Z,96.83
2017-11-27T03:56:01.120Z,97.02
2017-11-27T03:56:27.236Z,97.02
2017-11-27T03:56:53.357Z,96.64
2017-11-27T03:57:19.481Z,96.92
2017-11-27T03:57:45.599Z,96.83
2017-11-27T03:58:11.740Z,96.83
2017-11-27T03:58:37.858Z,96.92
2017-11-27T03:59:03.981Z,96.83
2017-11-27T03:59:30.100Z,96.83
2017-11-27T03:59:56.246Z,96.92
2017-11-27T04:00:22.367Z,96.83
2017-11-27T04:00:48.484Z,96.92
2017-11-27T04:01:14.629Z,96.83
2017-11-27T04:01:40.746Z,96.92
2017-11-27T04:02:06.863Z,97.02
2017-11-27T04:02:33.001Z,96.83
2017-11-27T04:02:59.141Z,96.64
2017-11-27T04:03:25.260Z,97.12
2017-11-27T04:03:51.390Z,96.92
2017-11-27T04:04:17.505Z,96.92
2017-11-27T04:04:43.631Z,96.31
2017-11-27T04:05:09.750Z,97.21
2017-11-27T04:05:35.865Z,96.92
2017-11-27T04:06:01.994Z,96.92
2017-11-27T04:06:28.121Z,97.12
2017-11-27T04:06:54.242Z,96.12
2017-11-27T04:07:20.369Z,96.08
2017-11-27T04:07:46.499Z,96.83
2017-11-27T04:08:12.609Z,96.83
2017-11-27T04:08:38.737Z,96.92
2017-11-27T04:09:04.874Z,97.12
2017-11-27T04:09:30.967Z,96.45
2017-11-27T04:09:57.090Z,96.92
2017-11-27T04:10:23.241Z,96.92
2017-11-27T04:10:49.372Z,96.73
2017-11-27T04:11:15.499Z,96.5
2017-11-27T04:11:41.618Z,96.36
2017-11-27T04:12:07.738Z,96.59
2017-11-27T04:12:33.855Z,96.22
2017-11-27T04:12:59.978Z,95.79
2017-11-27T04:13:26.098Z,96.17
2017-11-27T04:13:52.223Z,96.08
2017-11-27T04:14:18.337Z,96.45
2017-11-27T04:14:44.498Z,96.73
2017-11-27T04:15:10.629Z,96.83
2017-11-27T04:15:36.750Z,96.83
2017-11-27T04:16:02.871Z,96.73
2017-11-27T04:16:28.991Z,97.12
2017-11-27T04:16:55.112Z,96.92
2017-11-27T04:17:21.230Z,96.83
2017-11-27T04:17:47.348Z,96.73
2017-11-27T04:18:13.490Z,97.12
2017-11-27T04:18:39.621Z,96.88
2017-11-27T04:19:05.725Z,96.83
2017-11-27T04:19:31.844Z,96.83
2017-11-27T04:19:57.969Z,97.02
2017-11-27T04:20:24.085Z,96.92
2017-11-27T04:20:50.206Z,97.02
2017-11-27T04:21:16.330Z,97.02
2017-11-27T04:21:42.446Z,96.92
2017-11-27T04:22:08.583Z,97.02
2017-11-27T04:22:34.690Z,97.02
2017-11-27T04:23:00.817Z,96.83
2017-11-27T04:23:26.931Z,96.64
2017-11-27T04:23:53.051Z,97.02
2017-11-27T04:24:19.178Z,96.92
2017-11-27T04:24:45.297Z,97.02
2017-11-27T04:25:11.420Z,96.92
2017-11-27T04:25:37.549Z,96.92
2017-11-27T04:26:03.683Z,96.92
2017-11-27T04:26:29.807Z,96.92
2017-11-27T04:26:55.931Z,96.92
2017-11-27T04:27:22.053Z,97.12
2017-11-27T04:27:48.174Z,97.12
2017-11-27T04:28:14.293Z,97.5
2017-11-27T04:28:40.410Z,96.64
2017-11-27T04:29:06.544Z,96.64
2017-11-27T04:29:32.668Z,96.92
2017-11-27T04:29:58.787Z,97.02
2017-11-27T04:30:24.911Z,96.64
2017-11-27T04:30:51.026Z,97.02
2017-11-27T04:31:17.160Z,96.83
2017-11-27T04:31:43.321Z,96.73
2017-11-27T04:32:09.438Z,96.83
2017-11-27T04:32:35.556Z,96.26
2017-11-27T04:33:01.671Z,96.22
2017-11-27T04:33:27.799Z,96.36
2017-11-27T04:33:53.917Z,96.55
2017-11-27T04:34:20.039Z,96.17
2017-11-27T04:34:46.159Z,96.55
2017-11-27T04:35:12.278Z,96.64
2017-11-27T04:35:38.402Z,96.36
2017-11-27T04:36:04.525Z,96.36
2017-11-27T04:36:30.640Z,96.55
2017-11-27T04:36:56.765Z,96.17
2017-11-27T04:37:22.885Z,96.26
2017-11-27T04:37:48.999Z,96.92
2017-11-27T04:38:15.126Z,97.12
2017-11-27T04:38:41.263Z,97.02
2017-11-27T04:39:07.432Z,96.73
2017-11-27T04:39:33.554Z,96.73
2017-11-27T04:39:59.675Z,96.92
2017-11-27T04:40:25.794Z,96.45
2017-11-27T04:40:51.915Z,96.92
2017-11-27T04:41:18.036Z,97.12
2017-11-27T04:41:44.155Z,96.92
2017-11-27T04:42:10.277Z,97.12
2017-11-27T04:42:36.392Z,96.45
2017-11-27T04:43:02.518Z,96.55
2017-11-27T04:43:28.634Z,96.55
2017-11-27T04:43:54.758Z,96.08
2017-11-27T04:44:20.876Z,96.83
2017-11-27T04:44:46.994Z,96.83
2017-11-27T04:45:13.118Z,96.92
2017-11-27T04:45:39.238Z,97.02
2017-11-27T04:46:05.365Z,96.92
2017-11-27T04:46:31.482Z,97.02
2017-11-27T04:46:57.604Z,96.83
2017-11-27T04:47:23.721Z,96.92
2017-11-27T04:47:49.838Z,97.02
2017-11-27T04:48:15.958Z,96.83
2017-11-27T04:48:42.078Z,96.83
2017-11-27T04:49:08.201Z,96.83
2017-11-27T04:49:34.326Z,96.83
2017-11-27T04:50:00.451Z,97.21
2017-11-27T04:50:26.586Z,97.5
2017-11-27T04:50:52.704Z,97.31
2017-11-27T04:51:18.830Z,96.92
2017-11-27T04:51:44.945Z,96.92
2017-11-27T04:52:11.068Z,96.92
2017-11-27T04:52:37.195Z,97.12
2017-11-27T04:53:03.313Z,97.02
2017-11-27T04:53:29.449Z,97.12
2017-11-27T04:53:55.566Z,96.83
2017-11-27T04:54:21.685Z,96.92
2017-11-27T04:54:47.810Z,96.92
2017-11-27T04:55:13.959Z,96.55
2017-11-27T04:55:40.081Z,96.64
2017-11-27T04:56:06.195Z,97.12
2017-11-27T04:56:32.317Z,96.64
2017-11-27T04:56:58.443Z,96.83
2017-11-27T04:57:24.557Z,96.92
2017-11-27T04:57:50.675Z,96.83
2017-11-27T04:58:16.800Z,96.73
2017-11-27T04:58:42.919Z,97.02
2017-11-27T04:59:09.068Z,97.02
2017-11-27T04:59:35.197Z,96.92
2017-11-27T05:00:01.309Z,96.83
2017-11-27T05:00:27.436Z,97.12
2017-11-27T05:00:53.551Z,96.64
2017-11-27T05:01:19.688Z,96.55
2017-11-27T05:01:45.833Z,97.4
2017-11-27T05:02:11.959Z,97.21
2017-11-27T05:02:38.078Z,97.12
2017-11-27T05:03:04.192Z,96.92
2017-11-27T05:03:30.318Z,97.02
2017-11-27T05:03:56.440Z,96.83
2017-11-27T05:04:22.555Z,96.55
2017-11-27T05:04:48.676Z,97.12
2017-11-27T05:05:14.820Z,96.73
2017-11-27T05:05:40.941Z,96.92
2017-11-27T05:06:07.057Z,96.92
2017-11-27T05:06:33.185Z,97.02
2017-11-27T05:06:59.302Z,97.02
2017-11-27T05:07:25.427Z,97.02
2017-11-27T05:07:51.541Z,96.92
2017-11-27T05:08:17.663Z,96.97
2017-11-27T05:08:43.790Z,96.45
2017-11-27T05:09:09.934Z,96.83
2017-11-27T05:09:36.055Z,96.64
2017-11-27T05:10:02.171Z,96.83
2017-11-27T05:10:28.292Z,96.92
2017-11-27T05:10:54.411Z,97.12
2017-11-27T05:11:20.537Z,96.83
2017-11-27T05:11:46.650Z,97.12
2017-11-27T05:12:12.771Z,96.83
2017-11-27T05:12:38.900Z,96.92
2017-11-27T05:13:05.014Z,96.45
2017-11-27T05:13:31.136Z,96.17
2017-11-27T05:13:57.274Z,96.55
2017-11-27T05:14:23.403Z,96.08
2017-11-27T05:14:49.524Z,96.92
2017-11-27T05:15:15.638Z,96.73
2017-11-27T05:15:41.759Z,96.73
2017-11-27T05:16:07.885Z,96.92
2017-11-27T05:16:34.003Z,97.02
2017-11-27T05:17:00.136Z,96.92
2017-11-27T05:17:26.241Z,96.92
2017-11-27T05:17:52.362Z,97.02
2017-11-27T05:18:18.489Z,96.83
2017-11-27T05:18:44.607Z,97.02
2017-11-27T05:19:10.746Z,97.02
2017-11-27T05:19:36.870Z,96.64
2017-11-27T05:20:02.990Z,96.64
2017-11-27T05:20:29.109Z,97.12
2017-11-27T05:20:55.248Z,96.64
2017-11-27T05:21:21.391Z,96.83
2017-11-27T05:21:47.506Z,96.83
2017-11-27T05:22:13.626Z,96.73
2017-11-27T05:22:39.753Z,96.26
2017-11-27T05:23:05.866Z,96.36
2017-11-27T05:23:32.007Z,96.08
2017-11-27T05:23:58.135Z,96.55
2017-11-27T05:24:24.277Z,96.55
2017-11-27T05:24:50.399Z,96.17
2017-11-27T05:25:16.514Z,96.45
2017-11-27T05:25:42.639Z,96.08
2017-11-27T05:26:08.754Z,96.26
2017-11-27T05:26:34.878Z,96.92
2017-11-27T05:27:01.000Z,96.45
2017-11-27T05:27:27.116Z,96.36
2017-11-27T05:27:53.242Z,96.36
2017-11-27T05:28:19.365Z,96.36
2017-11-27T05:28:45.483Z,96.17
2017-11-27T05:29:11.602Z,95.88
2017-11-27T05:29:37.724Z,96.55
2017-11-27T05:30:03.848Z,96.17
2017-11-27T05:30:29.989Z,96.45
2017-11-27T05:30:56.099Z,96.45
2017-11-27T05:31:22.227Z,96.36
2017-11-27T05:31:48.341Z,95.88
2017-11-27T05:32:14.458Z,96.17
2017-11-27T05:32:40.582Z,96.26
2017-11-27T05:33:06.709Z,96.17
2017-11-27T05:33:32.829Z,96.17
2017-11-27T05:33:58.952Z,96.17
2017-11-27T05:34:25.077Z,96.08
2017-11-27T05:34:51.194Z,95.69
2017-11-27T05:35:17.319Z,95.79
2017-11-27T05:35:43.434Z,95.88
2017-11-27T05:36:09.549Z,95.79
2017-11-27T05:36:35.678Z,96.17